sensor_id;sensor_type;location;lat;lon;timestamp;P1;durP1;ratioP1;P2;durP2;ratioP2
19758;SDS011;10038;42.662;23.278;2023-01-30T00:00:33;12.35;;;7.15;;
19758;SDS011;10038;42.662;23.278;2023-01-30T00:03:00;19.95;;;8.82;;
19758;SDS011;10038;42.662;23.278;2023-01-30T00:05:28;14.20;;;8.32;;
19758;SDS011;10038;42.662;23.278;2023-01-30T00:07:54;15.80;;;7.82;;
19758;SDS011;10038;42.662;23.278;2023-01-30T00:10:20;19.50;;;8.10;;
19758;SDS011;10038;42.662;23.278;2023-01-30T00:12:47;18.08;;;7.93;;
19758;SDS011;10038;42.662;23.278;2023-01-30T00:15:13;18.00;;;8.32;;
19758;SDS011;10038;42.662;23.278;2023-01-30T00:17:40;13.32;;;7.50;;
19758;SDS011;10038;42.662;23.278;2023-01-30T00:20:07;13.18;;;7.53;;
19758;SDS011;10038;42.662;23.278;2023-01-30T00:22:35;19.30;;;9.90;;
19758;SDS011;10038;42.662;23.278;2023-01-30T00:25:01;17.27;;;8.82;;
19758;SDS011;10038;42.662;23.278;2023-01-30T00:27:28;15.35;;;7.88;;
19758;SDS011;10038;42.662;23.278;2023-01-30T00:29:55;17.67;;;8.95;;
19758;SDS011;10038;42.662;23.278;2023-01-30T00:32:22;19.38;;;8.30;;
19758;SDS011;10038;42.662;23.278;2023-01-30T00:34:50;14.95;;;7.78;;
19758;SDS011;10038;42.662;23.278;2023-01-30T00:37:17;17.13;;;8.40;;
19758;SDS011;10038;42.662;23.278;2023-01-30T00:39:50;19.42;;;8.75;;
19758;SDS011;10038;42.662;23.278;2023-01-30T00:42:17;13.88;;;8.40;;
19758;SDS011;10038;42.662;23.278;2023-01-30T00:45:00;14.65;;;8.35;;
19758;SDS011;10038;42.662;23.278;2023-01-30T00:47:45;15.25;;;9.18;;
19758;SDS011;10038;42.662;23.278;2023-01-30T00:50:12;14.57;;;6.80;;
19758;SDS011;10038;42.662;23.278;2023-01-30T00:52:38;14.63;;;7.53;;
19758;SDS011;10038;42.662;23.278;2023-01-30T00:55:07;12.15;;;5.38;;
19758;SDS011;10038;42.662;23.278;2023-01-30T00:57:33;15.00;;;6.35;;
19758;SDS011;10038;42.662;23.278;2023-01-30T01:00:00;13.90;;;7.97;;
19758;SDS011;10038;42.662;23.278;2023-01-30T01:02:29;16.85;;;7.18;;
19758;SDS011;10038;42.662;23.278;2023-01-30T01:04:55;14.60;;;6.78;;
19758;SDS011;10038;42.662;23.278;2023-01-30T01:07:22;16.15;;;7.65;;
19758;SDS011;10038;42.662;23.278;2023-01-30T01:09:48;15.63;;;6.47;;
19758;SDS011;10038;42.662;23.278;2023-01-30T01:12:16;13.40;;;6.70;;
19758;SDS011;10038;42.662;23.278;2023-01-30T01:14:43;14.25;;;7.25;;
19758;SDS011;10038;42.662;23.278;2023-01-30T01:17:09;13.82;;;6.30;;
19758;SDS011;10038;42.662;23.278;2023-01-30T01:19:36;13.80;;;7.43;;
19758;SDS011;10038;42.662;23.278;2023-01-30T01:22:02;11.55;;;6.75;;
19758;SDS011;10038;42.662;23.278;2023-01-30T01:24:29;11.48;;;6.30;;
19758;SDS011;10038;42.662;23.278;2023-01-30T01:26:55;14.68;;;7.35;;
19758;SDS011;10038;42.662;23.278;2023-01-30T01:29:23;11.82;;;6.25;;
19758;SDS011;10038;42.662;23.278;2023-01-30T01:31:49;17.00;;;8.10;;
19758;SDS011;10038;42.662;23.278;2023-01-30T01:34:16;13.45;;;6.55;;
19758;SDS011;10038;42.662;23.278;2023-01-30T01:36:42;14.10;;;8.63;;
19758;SDS011;10038;42.662;23.278;2023-01-30T01:39:09;15.00;;;6.20;;
19758;SDS011;10038;42.662;23.278;2023-01-30T01:41:35;16.08;;;8.48;;
19758;SDS011;10038;42.662;23.278;2023-01-30T01:44:02;17.03;;;7.30;;
19758;SDS011;10038;42.662;23.278;2023-01-30T01:46:31;20.52;;;8.25;;
19758;SDS011;10038;42.662;23.278;2023-01-30T01:48:59;20.85;;;8.13;;
19758;SDS011;10038;42.662;23.278;2023-01-30T01:51:28;17.95;;;9.18;;
19758;SDS011;10038;42.662;23.278;2023-01-30T01:53:56;15.45;;;7.22;;
19758;SDS011;10038;42.662;23.278;2023-01-30T01:56:24;10.18;;;6.57;;
19758;SDS011;10038;42.662;23.278;2023-01-30T01:58:51;15.82;;;6.32;;
19758;SDS011;10038;42.662;23.278;2023-01-30T02:01:20;13.88;;;7.47;;
19758;SDS011;10038;42.662;23.278;2023-01-30T02:03:50;13.75;;;7.40;;
19758;SDS011;10038;42.662;23.278;2023-01-30T02:06:18;14.40;;;7.13;;
19758;SDS011;10038;42.662;23.278;2023-01-30T02:08:47;12.45;;;6.38;;
19758;SDS011;10038;42.662;23.278;2023-01-30T02:11:16;16.38;;;7.15;;
19758;SDS011;10038;42.662;23.278;2023-01-30T02:13:45;12.20;;;6.18;;
19758;SDS011;10038;42.662;23.278;2023-01-30T02:16:12;13.93;;;6.85;;
19758;SDS011;10038;42.662;23.278;2023-01-30T02:18:39;13.93;;;7.00;;
19758;SDS011;10038;42.662;23.278;2023-01-30T02:21:18;9.40;;;5.72;;
19758;SDS011;10038;42.662;23.278;2023-01-30T02:24:16;14.00;;;6.43;;
19758;SDS011;10038;42.662;23.278;2023-01-30T02:32:33;13.98;;;6.10;;
19758;SDS011;10038;42.662;23.278;2023-01-30T02:35:02;10.18;;;4.93;;
19758;SDS011;10038;42.662;23.278;2023-01-30T02:37:33;14.50;;;5.65;;
19758;SDS011;10038;42.662;23.278;2023-01-30T02:40:07;16.25;;;6.57;;
19758;SDS011;10038;42.662;23.278;2023-01-30T02:42:37;11.95;;;5.47;;
19758;SDS011;10038;42.662;23.278;2023-01-30T02:45:09;10.10;;;5.28;;
19758;SDS011;10038;42.662;23.278;2023-01-30T02:47:39;9.25;;;5.43;;
19758;SDS011;10038;42.662;23.278;2023-01-30T02:50:09;11.73;;;5.47;;
19758;SDS011;10038;42.662;23.278;2023-01-30T02:52:37;12.43;;;5.30;;
19758;SDS011;10038;42.662;23.278;2023-01-30T02:55:08;14.20;;;5.50;;
19758;SDS011;10038;42.662;23.278;2023-01-30T02:57:35;15.95;;;7.15;;
19758;SDS011;10038;42.662;23.278;2023-01-30T03:00:02;11.73;;;6.82;;
19758;SDS011;10038;42.662;23.278;2023-01-30T03:05:21;9.90;;;6.18;;
19758;SDS011;10038;42.662;23.278;2023-01-30T03:07:54;9.07;;;5.65;;
19758;SDS011;10038;42.662;23.278;2023-01-30T03:10:28;11.82;;;5.18;;
19758;SDS011;10038;42.662;23.278;2023-01-30T03:13:00;9.23;;;5.55;;
19758;SDS011;10038;42.662;23.278;2023-01-30T03:15:29;11.43;;;5.40;;
19758;SDS011;10038;42.662;23.278;2023-01-30T03:17:58;9.13;;;5.40;;
19758;SDS011;10038;42.662;23.278;2023-01-30T03:20:27;12.65;;;6.20;;
19758;SDS011;10038;42.662;23.278;2023-01-30T03:22:54;15.40;;;6.80;;
19758;SDS011;10038;42.662;23.278;2023-01-30T03:25:21;14.20;;;6.40;;
19758;SDS011;10038;42.662;23.278;2023-01-30T03:27:49;15.63;;;6.45;;
19758;SDS011;10038;42.662;23.278;2023-01-30T03:30:17;14.18;;;5.95;;
19758;SDS011;10038;42.662;23.278;2023-01-30T03:32:44;9.65;;;5.38;;
19758;SDS011;10038;42.662;23.278;2023-01-30T03:35:10;15.15;;;7.85;;
19758;SDS011;10038;42.662;23.278;2023-01-30T03:37:38;12.55;;;6.85;;
19758;SDS011;10038;42.662;23.278;2023-01-30T03:40:05;21.70;;;6.07;;
19758;SDS011;10038;42.662;23.278;2023-01-30T03:42:32;16.38;;;6.93;;
19758;SDS011;10038;42.662;23.278;2023-01-30T03:44:58;11.88;;;5.88;;
19758;SDS011;10038;42.662;23.278;2023-01-30T03:47:25;10.18;;;5.57;;
19758;SDS011;10038;42.662;23.278;2023-01-30T03:49:51;13.32;;;6.43;;
19758;SDS011;10038;42.662;23.278;2023-01-30T03:52:18;11.48;;;5.32;;
19758;SDS011;10038;42.662;23.278;2023-01-30T03:54:45;12.27;;;5.93;;
19758;SDS011;10038;42.662;23.278;2023-01-30T03:57:12;10.82;;;5.32;;
19758;SDS011;10038;42.662;23.278;2023-01-30T03:59:38;10.23;;;5.20;;
19758;SDS011;10038;42.662;23.278;2023-01-30T04:02:05;14.35;;;6.22;;
19758;SDS011;10038;42.662;23.278;2023-01-30T04:04:32;9.05;;;5.15;;
19758;SDS011;10038;42.662;23.278;2023-01-30T04:06:58;15.45;;;6.60;;
19758;SDS011;10038;42.662;23.278;2023-01-30T04:09:25;16.35;;;5.88;;
19758;SDS011;10038;42.662;23.278;2023-01-30T04:11:54;11.80;;;6.00;;
19758;SDS011;10038;42.662;23.278;2023-01-30T04:14:21;14.75;;;5.70;;
19758;SDS011;10038;42.662;23.278;2023-01-30T04:16:47;10.75;;;4.50;;
19758;SDS011;10038;42.662;23.278;2023-01-30T04:19:13;11.10;;;5.65;;
19758;SDS011;10038;42.662;23.278;2023-01-30T04:21:40;10.23;;;5.60;;
19758;SDS011;10038;42.662;23.278;2023-01-30T04:24:07;12.82;;;6.85;;
19758;SDS011;10038;42.662;23.278;2023-01-30T04:26:33;13.40;;;6.45;;
19758;SDS011;10038;42.662;23.278;2023-01-30T04:29:01;15.32;;;6.57;;
19758;SDS011;10038;42.662;23.278;2023-01-30T04:31:27;17.65;;;6.88;;
19758;SDS011;10038;42.662;23.278;2023-01-30T04:33:54;17.70;;;7.40;;
19758;SDS011;10038;42.662;23.278;2023-01-30T04:36:20;11.90;;;6.20;;
19758;SDS011;10038;42.662;23.278;2023-01-30T04:38:47;15.70;;;7.47;;
19758;SDS011;10038;42.662;23.278;2023-01-30T04:41:13;22.08;;;8.80;;
19758;SDS011;10038;42.662;23.278;2023-01-30T04:43:40;18.50;;;8.07;;
19758;SDS011;10038;42.662;23.278;2023-01-30T04:46:08;13.60;;;7.32;;
19758;SDS011;10038;42.662;23.278;2023-01-30T04:48:34;11.57;;;6.32;;
19758;SDS011;10038;42.662;23.278;2023-01-30T04:51:01;18.02;;;7.28;;
19758;SDS011;10038;42.662;23.278;2023-01-30T04:53:27;14.40;;;7.32;;
19758;SDS011;10038;42.662;23.278;2023-01-30T04:55:53;16.63;;;6.88;;
19758;SDS011;10038;42.662;23.278;2023-01-30T04:58:20;24.85;;;7.93;;
19758;SDS011;10038;42.662;23.278;2023-01-30T05:00:46;13.77;;;6.18;;
19758;SDS011;10038;42.662;23.278;2023-01-30T05:03:14;14.18;;;6.68;;
19758;SDS011;10038;42.662;23.278;2023-01-30T05:05:41;12.10;;;7.75;;
19758;SDS011;10038;42.662;23.278;2023-01-30T05:08:08;19.45;;;9.05;;
19758;SDS011;10038;42.662;23.278;2023-01-30T05:10:34;21.65;;;10.02;;
19758;SDS011;10038;42.662;23.278;2023-01-30T05:13:01;18.80;;;9.63;;
19758;SDS011;10038;42.662;23.278;2023-01-30T05:15:28;18.25;;;9.60;;
19758;SDS011;10038;42.662;23.278;2023-01-30T05:17:54;20.67;;;8.93;;
19758;SDS011;10038;42.662;23.278;2023-01-30T05:20:22;26.88;;;8.90;;
19758;SDS011;10038;42.662;23.278;2023-01-30T05:22:49;16.70;;;8.07;;
19758;SDS011;10038;42.662;23.278;2023-01-30T05:25:15;15.50;;;8.63;;
19758;SDS011;10038;42.662;23.278;2023-01-30T05:27:42;18.83;;;9.45;;
19758;SDS011;10038;42.662;23.278;2023-01-30T05:30:09;13.80;;;7.22;;
19758;SDS011;10038;42.662;23.278;2023-01-30T05:32:35;18.27;;;7.78;;
19758;SDS011;10038;42.662;23.278;2023-01-30T05:35:02;18.15;;;8.50;;
19758;SDS011;10038;42.662;23.278;2023-01-30T05:37:30;16.63;;;8.65;;
19758;SDS011;10038;42.662;23.278;2023-01-30T05:39:56;21.50;;;10.00;;
19758;SDS011;10038;42.662;23.278;2023-01-30T05:42:23;17.10;;;8.70;;
19758;SDS011;10038;42.662;23.278;2023-01-30T05:44:49;17.38;;;8.13;;
19758;SDS011;10038;42.662;23.278;2023-01-30T05:47:16;24.10;;;11.40;;
19758;SDS011;10038;42.662;23.278;2023-01-30T05:49:42;21.20;;;10.93;;
19758;SDS011;10038;42.662;23.278;2023-01-30T05:52:09;19.40;;;8.77;;
19758;SDS011;10038;42.662;23.278;2023-01-30T05:54:36;18.50;;;9.43;;
19758;SDS011;10038;42.662;23.278;2023-01-30T05:57:03;19.17;;;9.50;;
19758;SDS011;10038;42.662;23.278;2023-01-30T05:59:29;26.33;;;10.10;;
19758;SDS011;10038;42.662;23.278;2023-01-30T06:01:56;20.60;;;10.60;;
19758;SDS011;10038;42.662;23.278;2023-01-30T06:04:23;18.63;;;8.30;;
19758;SDS011;10038;42.662;23.278;2023-01-30T06:06:49;28.08;;;11.88;;
19758;SDS011;10038;42.662;23.278;2023-01-30T06:09:15;20.23;;;9.52;;
19758;SDS011;10038;42.662;23.278;2023-01-30T06:11:43;21.58;;;10.43;;
19758;SDS011;10038;42.662;23.278;2023-01-30T06:14:10;31.92;;;10.57;;
19758;SDS011;10038;42.662;23.278;2023-01-30T06:16:36;18.08;;;10.60;;
19758;SDS011;10038;42.662;23.278;2023-01-30T06:19:03;24.70;;;10.85;;
19758;SDS011;10038;42.662;23.278;2023-01-30T06:21:29;14.60;;;8.68;;
19758;SDS011;10038;42.662;23.278;2023-01-30T06:23:56;30.25;;;11.20;;
19758;SDS011;10038;42.662;23.278;2023-01-30T06:26:22;21.80;;;10.50;;
19758;SDS011;10038;42.662;23.278;2023-01-30T06:28:50;20.38;;;9.50;;
19758;SDS011;10038;42.662;23.278;2023-01-30T06:31:17;20.08;;;9.80;;
19758;SDS011;10038;42.662;23.278;2023-01-30T06:33:43;23.02;;;10.95;;
19758;SDS011;10038;42.662;23.278;2023-01-30T06:36:09;17.08;;;9.15;;
19758;SDS011;10038;42.662;23.278;2023-01-30T06:38:36;22.13;;;10.35;;
19758;SDS011;10038;42.662;23.278;2023-01-30T06:41:02;23.25;;;10.52;;
19758;SDS011;10038;42.662;23.278;2023-01-30T06:43:29;25.13;;;12.25;;
19758;SDS011;10038;42.662;23.278;2023-01-30T06:45:58;26.35;;;11.80;;
19758;SDS011;10038;42.662;23.278;2023-01-30T06:48:27;23.25;;;10.65;;
19758;SDS011;10038;42.662;23.278;2023-01-30T06:50:53;21.02;;;11.15;;
19758;SDS011;10038;42.662;23.278;2023-01-30T06:53:20;26.58;;;11.30;;
19758;SDS011;10038;42.662;23.278;2023-01-30T06:55:49;30.58;;;13.32;;
19758;SDS011;10038;42.662;23.278;2023-01-30T06:58:15;27.35;;;12.85;;
19758;SDS011;10038;42.662;23.278;2023-01-30T07:00:42;26.48;;;12.38;;
19758;SDS011;10038;42.662;23.278;2023-01-30T07:03:10;30.52;;;13.50;;
19758;SDS011;10038;42.662;23.278;2023-01-30T07:05:37;24.65;;;12.45;;
19758;SDS011;10038;42.662;23.278;2023-01-30T07:08:03;19.58;;;10.05;;
19758;SDS011;10038;42.662;23.278;2023-01-30T07:10:30;30.20;;;15.43;;
19758;SDS011;10038;42.662;23.278;2023-01-30T07:12:56;26.77;;;12.70;;
19758;SDS011;10038;42.662;23.278;2023-01-30T07:15:23;27.98;;;11.55;;
19758;SDS011;10038;42.662;23.278;2023-01-30T07:17:49;24.60;;;11.32;;
19758;SDS011;10038;42.662;23.278;2023-01-30T07:20:17;24.30;;;12.63;;
19758;SDS011;10038;42.662;23.278;2023-01-30T07:22:47;21.05;;;9.50;;
19758;SDS011;10038;42.662;23.278;2023-01-30T07:25:14;19.25;;;10.15;;
19758;SDS011;10038;42.662;23.278;2023-01-30T07:27:41;19.17;;;9.75;;
19758;SDS011;10038;42.662;23.278;2023-01-30T07:30:08;26.55;;;11.43;;
19758;SDS011;10038;42.662;23.278;2023-01-30T07:32:34;26.45;;;12.45;;
19758;SDS011;10038;42.662;23.278;2023-01-30T07:35:01;30.83;;;12.00;;
19758;SDS011;10038;42.662;23.278;2023-01-30T07:37:29;25.05;;;12.07;;
19758;SDS011;10038;42.662;23.278;2023-01-30T07:39:55;24.75;;;10.65;;
19758;SDS011;10038;42.662;23.278;2023-01-30T07:42:22;27.45;;;12.88;;
19758;SDS011;10038;42.662;23.278;2023-01-30T07:44:48;35.60;;;12.45;;
19758;SDS011;10038;42.662;23.278;2023-01-30T07:47:15;33.72;;;13.95;;
19758;SDS011;10038;42.662;23.278;2023-01-30T07:49:44;20.75;;;9.60;;
19758;SDS011;10038;42.662;23.278;2023-01-30T07:52:10;24.42;;;11.30;;
19758;SDS011;10038;42.662;23.278;2023-01-30T07:54:38;31.15;;;12.32;;
19758;SDS011;10038;42.662;23.278;2023-01-30T07:57:04;26.77;;;12.35;;
19758;SDS011;10038;42.662;23.278;2023-01-30T07:59:31;23.40;;;10.88;;
19758;SDS011;10038;42.662;23.278;2023-01-30T08:01:57;28.92;;;12.55;;
19758;SDS011;10038;42.662;23.278;2023-01-30T08:04:24;30.05;;;12.45;;
19758;SDS011;10038;42.662;23.278;2023-01-30T08:06:51;25.00;;;9.88;;
19758;SDS011;10038;42.662;23.278;2023-01-30T08:09:17;21.67;;;13.10;;
19758;SDS011;10038;42.662;23.278;2023-01-30T08:11:45;27.98;;;13.15;;
19758;SDS011;10038;42.662;23.278;2023-01-30T08:14:11;23.20;;;12.55;;
19758;SDS011;10038;42.662;23.278;2023-01-30T08:16:38;25.75;;;10.82;;
19758;SDS011;10038;42.662;23.278;2023-01-30T08:19:04;22.73;;;11.00;;
19758;SDS011;10038;42.662;23.278;2023-01-30T08:21:31;22.20;;;10.88;;
19758;SDS011;10038;42.662;23.278;2023-01-30T08:23:58;26.98;;;11.73;;
19758;SDS011;10038;42.662;23.278;2023-01-30T08:26:24;23.65;;;11.25;;
19758;SDS011;10038;42.662;23.278;2023-01-30T08:28:52;20.33;;;11.02;;
19758;SDS011;10038;42.662;23.278;2023-01-30T08:31:20;28.10;;;11.80;;
19758;SDS011;10038;42.662;23.278;2023-01-30T08:33:46;19.33;;;10.10;;
19758;SDS011;10038;42.662;23.278;2023-01-30T08:36:13;22.80;;;12.45;;
19758;SDS011;10038;42.662;23.278;2023-01-30T08:38:39;25.08;;;12.05;;
19758;SDS011;10038;42.662;23.278;2023-01-30T08:41:06;26.23;;;11.93;;
19758;SDS011;10038;42.662;23.278;2023-01-30T08:43:33;21.92;;;10.13;;
19758;SDS011;10038;42.662;23.278;2023-01-30T08:46:01;21.50;;;9.82;;
19758;SDS011;10038;42.662;23.278;2023-01-30T08:48:28;18.23;;;9.43;;
19758;SDS011;10038;42.662;23.278;2023-01-30T08:50:55;19.88;;;10.05;;
19758;SDS011;10038;42.662;23.278;2023-01-30T08:53:21;17.80;;;8.95;;
19758;SDS011;10038;42.662;23.278;2023-01-30T08:55:48;22.88;;;12.70;;
19758;SDS011;10038;42.662;23.278;2023-01-30T08:58:18;25.13;;;11.35;;
19758;SDS011;10038;42.662;23.278;2023-01-30T09:00:47;22.80;;;11.43;;
19758;SDS011;10038;42.662;23.278;2023-01-30T09:03:16;26.33;;;13.35;;
19758;SDS011;10038;42.662;23.278;2023-01-30T09:05:43;23.85;;;10.45;;
19758;SDS011;10038;42.662;23.278;2023-01-30T09:08:10;21.25;;;10.68;;
19758;SDS011;10038;42.662;23.278;2023-01-30T09:10:36;21.17;;;9.77;;
19758;SDS011;10038;42.662;23.278;2023-01-30T09:13:03;17.30;;;8.55;;
19758;SDS011;10038;42.662;23.278;2023-01-30T09:15:30;21.27;;;8.27;;
19758;SDS011;10038;42.662;23.278;2023-01-30T09:17:56;16.80;;;8.95;;
19758;SDS011;10038;42.662;23.278;2023-01-30T09:20:24;14.38;;;9.73;;
19758;SDS011;10038;42.662;23.278;2023-01-30T09:22:51;22.15;;;9.90;;
19758;SDS011;10038;42.662;23.278;2023-01-30T09:25:17;15.77;;;8.68;;
19758;SDS011;10038;42.662;23.278;2023-01-30T09:27:46;19.45;;;9.40;;
19758;SDS011;10038;42.662;23.278;2023-01-30T09:32:39;16.70;;;10.80;;
19758;SDS011;10038;42.662;23.278;2023-01-30T09:35:06;14.70;;;8.45;;
19758;SDS011;10038;42.662;23.278;2023-01-30T09:37:34;13.38;;;8.57;;
19758;SDS011;10038;42.662;23.278;2023-01-30T09:40:00;16.73;;;8.77;;
19758;SDS011;10038;42.662;23.278;2023-01-30T09:42:39;22.20;;;10.85;;
19758;SDS011;10038;42.662;23.278;2023-01-30T09:45:12;16.38;;;7.68;;
19758;SDS011;10038;42.662;23.278;2023-01-30T09:47:43;20.77;;;9.43;;
19758;SDS011;10038;42.662;23.278;2023-01-30T09:50:15;15.85;;;8.10;;
19758;SDS011;10038;42.662;23.278;2023-01-30T09:52:50;16.08;;;8.80;;
19758;SDS011;10038;42.662;23.278;2023-01-30T09:55:19;18.50;;;8.45;;
19758;SDS011;10038;42.662;23.278;2023-01-30T09:57:47;17.95;;;9.20;;
19758;SDS011;10038;42.662;23.278;2023-01-30T10:00:16;16.10;;;9.75;;
19758;SDS011;10038;42.662;23.278;2023-01-30T10:02:48;17.88;;;9.15;;
19758;SDS011;10038;42.662;23.278;2023-01-30T10:05:15;16.45;;;7.85;;
19758;SDS011;10038;42.662;23.278;2023-01-30T10:07:45;15.18;;;8.07;;
19758;SDS011;10038;42.662;23.278;2023-01-30T10:10:16;14.73;;;8.15;;
19758;SDS011;10038;42.662;23.278;2023-01-30T10:12:49;16.77;;;8.95;;
19758;SDS011;10038;42.662;23.278;2023-01-30T10:15:24;16.77;;;7.63;;
19758;SDS011;10038;42.662;23.278;2023-01-30T10:17:56;17.95;;;8.77;;
19758;SDS011;10038;42.662;23.278;2023-01-30T10:20:29;20.65;;;9.05;;
19758;SDS011;10038;42.662;23.278;2023-01-30T10:23:03;21.52;;;8.98;;
19758;SDS011;10038;42.662;23.278;2023-01-30T10:25:36;12.88;;;7.38;;
19758;SDS011;10038;42.662;23.278;2023-01-30T10:28:09;14.30;;;7.88;;
19758;SDS011;10038;42.662;23.278;2023-01-30T10:30:37;15.82;;;7.63;;
19758;SDS011;10038;42.662;23.278;2023-01-30T10:33:35;16.33;;;6.90;;
19758;SDS011;10038;42.662;23.278;2023-01-30T10:36:09;19.70;;;7.80;;
19758;SDS011;10038;42.662;23.278;2023-01-30T10:38:39;17.20;;;8.63;;
19758;SDS011;10038;42.662;23.278;2023-01-30T10:41:10;22.70;;;9.00;;
19758;SDS011;10038;42.662;23.278;2023-01-30T10:43:38;15.88;;;7.93;;
19758;SDS011;10038;42.662;23.278;2023-01-30T10:46:11;15.00;;;8.23;;
19758;SDS011;10038;42.662;23.278;2023-01-30T10:48:50;18.73;;;10.45;;
19758;SDS011;10038;42.662;23.278;2023-01-30T10:51:21;17.48;;;8.48;;
19758;SDS011;10038;42.662;23.278;2023-01-30T10:53:51;21.02;;;9.43;;
19758;SDS011;10038;42.662;23.278;2023-01-30T10:56:19;20.27;;;11.63;;
19758;SDS011;10038;42.662;23.278;2023-01-30T10:58:47;16.27;;;8.20;;
19758;SDS011;10038;42.662;23.278;2023-01-30T11:01:18;17.27;;;9.50;;
19758;SDS011;10038;42.662;23.278;2023-01-30T11:03:50;21.70;;;10.40;;
19758;SDS011;10038;42.662;23.278;2023-01-30T11:06:20;17.92;;;9.50;;
19758;SDS011;10038;42.662;23.278;2023-01-30T11:08:49;15.50;;;7.55;;
19758;SDS011;10038;42.662;23.278;2023-01-30T11:11:22;18.85;;;8.23;;
19758;SDS011;10038;42.662;23.278;2023-01-30T11:13:50;20.52;;;9.93;;
19758;SDS011;10038;42.662;23.278;2023-01-30T11:16:25;23.25;;;8.98;;
19758;SDS011;10038;42.662;23.278;2023-01-30T11:18:54;17.80;;;9.55;;
19758;SDS011;10038;42.662;23.278;2023-01-30T11:21:24;22.23;;;8.50;;
19758;SDS011;10038;42.662;23.278;2023-01-30T11:23:52;19.33;;;9.07;;
19758;SDS011;10038;42.662;23.278;2023-01-30T11:26:20;19.38;;;9.70;;
19758;SDS011;10038;42.662;23.278;2023-01-30T11:28:48;23.23;;;8.20;;
19758;SDS011;10038;42.662;23.278;2023-01-30T11:31:18;18.92;;;9.07;;
19758;SDS011;10038;42.662;23.278;2023-01-30T11:33:45;22.65;;;10.07;;
19758;SDS011;10038;42.662;23.278;2023-01-30T11:36:26;22.70;;;10.98;;
19758;SDS011;10038;42.662;23.278;2023-01-30T11:38:55;17.38;;;10.20;;
19758;SDS011;10038;42.662;23.278;2023-01-30T11:41:22;19.65;;;9.30;;
19758;SDS011;10038;42.662;23.278;2023-01-30T11:43:48;19.17;;;10.90;;
19758;SDS011;10038;42.662;23.278;2023-01-30T11:46:16;21.20;;;11.30;;
19758;SDS011;10038;42.662;23.278;2023-01-30T11:48:45;18.60;;;10.40;;
19758;SDS011;10038;42.662;23.278;2023-01-30T11:51:14;25.23;;;12.67;;
19758;SDS011;10038;42.662;23.278;2023-01-30T11:53:44;20.50;;;11.23;;
19758;SDS011;10038;42.662;23.278;2023-01-30T11:56:13;20.37;;;9.97;;
19758;SDS011;10038;42.662;23.278;2023-01-30T11:58:41;19.30;;;10.07;;
19758;SDS011;10038;42.662;23.278;2023-01-30T12:01:10;18.70;;;9.67;;
19758;SDS011;10038;42.662;23.278;2023-01-30T12:03:38;17.40;;;9.13;;
19758;SDS011;10038;42.662;23.278;2023-01-30T12:06:09;15.80;;;8.70;;
19758;SDS011;10038;42.662;23.278;2023-01-30T12:08:36;15.20;;;8.13;;
19758;SDS011;10038;42.662;23.278;2023-01-30T12:11:05;13.37;;;9.67;;
19758;SDS011;10038;42.662;23.278;2023-01-30T12:13:48;14.90;;;9.37;;
19758;SDS011;10038;42.662;23.278;2023-01-30T12:16:16;17.50;;;9.50;;
19758;SDS011;10038;42.662;23.278;2023-01-30T12:18:46;15.63;;;9.27;;
19758;SDS011;10038;42.662;23.278;2023-01-30T12:21:20;15.33;;;8.43;;
19758;SDS011;10038;42.662;23.278;2023-01-30T12:23:51;18.50;;;8.17;;
19758;SDS011;10038;42.662;23.278;2023-01-30T12:26:21;13.87;;;8.93;;
19758;SDS011;10038;42.662;23.278;2023-01-30T12:28:54;13.43;;;9.50;;
19758;SDS011;10038;42.662;23.278;2023-01-30T12:31:23;20.30;;;9.70;;
19758;SDS011;10038;42.662;23.278;2023-01-30T12:33:51;15.03;;;10.13;;
19758;SDS011;10038;42.662;23.278;2023-01-30T12:36:22;18.60;;;9.20;;
19758;SDS011;10038;42.662;23.278;2023-01-30T12:39:04;13.90;;;8.60;;
19758;SDS011;10038;42.662;23.278;2023-01-30T12:41:36;15.73;;;8.53;;
19758;SDS011;10038;42.662;23.278;2023-01-30T12:46:49;20.00;;;10.30;;
19758;SDS011;10038;42.662;23.278;2023-01-30T12:49:29;18.30;;;9.50;;
19758;SDS011;10038;42.662;23.278;2023-01-30T12:52:03;16.47;;;8.07;;
19758;SDS011;10038;42.662;23.278;2023-01-30T12:54:39;20.60;;;9.40;;
19758;SDS011;10038;42.662;23.278;2023-01-30T12:57:12;20.17;;;9.60;;
19758;SDS011;10038;42.662;23.278;2023-01-30T12:59:44;22.77;;;9.40;;
19758;SDS011;10038;42.662;23.278;2023-01-30T13:02:27;20.53;;;11.20;;
19758;SDS011;10038;42.662;23.278;2023-01-30T13:05:03;16.77;;;9.37;;
19758;SDS011;10038;42.662;23.278;2023-01-30T13:07:32;15.30;;;9.03;;
19758;SDS011;10038;42.662;23.278;2023-01-30T13:10:05;17.17;;;10.20;;
19758;SDS011;10038;42.662;23.278;2023-01-30T13:12:36;19.23;;;10.03;;
19758;SDS011;10038;42.662;23.278;2023-01-30T13:15:08;13.90;;;8.13;;
19758;SDS011;10038;42.662;23.278;2023-01-30T13:17:42;13.87;;;8.10;;
19758;SDS011;10038;42.662;23.278;2023-01-30T13:20:14;19.93;;;9.63;;
19758;SDS011;10038;42.662;23.278;2023-01-30T13:22:43;20.50;;;11.33;;
19758;SDS011;10038;42.662;23.278;2023-01-30T13:25:14;18.30;;;9.97;;
19758;SDS011;10038;42.662;23.278;2023-01-30T13:27:48;20.88;;;10.20;;
19758;SDS011;10038;42.662;23.278;2023-01-30T13:30:17;15.20;;;8.25;;
19758;SDS011;10038;42.662;23.278;2023-01-30T13:32:44;11.98;;;7.88;;
19758;SDS011;10038;42.662;23.278;2023-01-30T13:35:14;19.98;;;9.65;;
19758;SDS011;10038;42.662;23.278;2023-01-30T13:37:41;16.58;;;8.98;;
19758;SDS011;10038;42.662;23.278;2023-01-30T13:40:12;14.40;;;9.15;;
19758;SDS011;10038;42.662;23.278;2023-01-30T13:42:40;18.67;;;10.37;;
19758;SDS011;10038;42.662;23.278;2023-01-30T13:45:12;25.75;;;11.02;;
19758;SDS011;10038;42.662;23.278;2023-01-30T13:47:42;19.63;;;10.17;;
19758;SDS011;10038;42.662;23.278;2023-01-30T13:53:00;16.70;;;8.87;;
19758;SDS011;10038;42.662;23.278;2023-01-30T13:55:32;15.48;;;8.13;;
19758;SDS011;10038;42.662;23.278;2023-01-30T13:58:01;15.43;;;8.60;;
19758;SDS011;10038;42.662;23.278;2023-01-30T14:00:34;21.30;;;8.80;;
19758;SDS011;10038;42.662;23.278;2023-01-30T14:05:59;17.35;;;10.30;;
19758;SDS011;10038;42.662;23.278;2023-01-30T14:08:27;13.45;;;8.55;;
19758;SDS011;10038;42.662;23.278;2023-01-30T14:10:53;12.30;;;8.55;;
19758;SDS011;10038;42.662;23.278;2023-01-30T14:13:20;16.20;;;8.23;;
19758;SDS011;10038;42.662;23.278;2023-01-30T14:15:52;17.02;;;9.55;;
19758;SDS011;10038;42.662;23.278;2023-01-30T14:18:20;17.48;;;9.15;;
19758;SDS011;10038;42.662;23.278;2023-01-30T14:20:48;23.63;;;10.77;;
19758;SDS011;10038;42.662;23.278;2023-01-30T14:23:18;18.02;;;10.10;;
19758;SDS011;10038;42.662;23.278;2023-01-30T14:25:46;18.27;;;10.50;;
19758;SDS011;10038;42.662;23.278;2023-01-30T14:30:59;25.98;;;12.73;;
19758;SDS011;10038;42.662;23.278;2023-01-30T14:33:30;27.50;;;12.57;;
19758;SDS011;10038;42.662;23.278;2023-01-30T14:38:55;27.20;;;14.38;;
19758;SDS011;10038;42.662;23.278;2023-01-30T14:41:28;23.45;;;11.25;;
19758;SDS011;10038;42.662;23.278;2023-01-30T14:43:55;34.80;;;16.58;;
19758;SDS011;10038;42.662;23.278;2023-01-30T14:49:18;37.85;;;16.08;;
19758;SDS011;10038;42.662;23.278;2023-01-30T14:51:47;35.97;;;14.70;;
19758;SDS011;10038;42.662;23.278;2023-01-30T14:54:25;33.05;;;14.65;;